Buoy 46930

sailwx.info

Track history (hours):
 
Tides and Currents Weather Stations Pressure Air Temp Water Temp Dewpoint Dewpoint Depression Visibility Wind Speed Wind Dir Waves Ship Positions

Drifting buoy 46930

Last reported at 2016-May-24 17:00 UTC. Time now 2016-May-24 21:31 UTC.
Position N 19°13' W 157°02'.

Date/timePositionNaut miles runAvg speedWind from/ knotsBaromVisibWave heightAir tempDewpointWater temp
2016-May-24 17:00N 19°13' W 157°02'1 0.7
2016-May-24 16:00N 19°13' W 157°03'0 0.3
2016-May-24 15:00N 19°13' W 157°03'4 0.6
2016-May-24 08:00N 19°10' W 157°06'0 0.5
2016-May-24 07:00N 19°09' W 157°07'1 1.1
2016-May-24 06:00N 19°09' W 157°06'0 0.2
2016-May-24 05:00N 19°08' W 157°06'1 1.2
2016-May-24 04:00N 19°07' W 157°06'1 0.7
2016-May-24 03:00N 19°07' W 157°06'2 0.4
2016-May-23 23:00N 19°05' W 157°05'2 0.4
2016-May-23 19:00N 19°05' W 157°07'5 0.4
2016-May-23 07:00N 19°01' W 157°10'2 0.8
2016-May-23 05:00N 18°59' W 157°09'1 0.5
2016-May-23 04:00N 18°58' W 157°09'1 0.8
2016-May-23 03:00N 18°58' W 157°09'1 0.8
2016-May-23 02:00N 18°57' W 157°09'1 0.4
2016-May-22 23:00N 18°56' W 157°09'5 0.9
2016-May-22 17:00N 18°50' W 157°07'1 0.7
2016-May-22 15:00N 18°50' W 157°06'8 1.0
2016-May-22 07:00N 18°43' W 157°02'2 0.9
2016-May-22 05:00N 18°42' W 156°60'3 0.8
2016-May-22 02:00N 18°41' W 156°58'8 1.3
2016-May-21 20:00N 18°36' W 156°52'0 0.2
2016-May-21 19:00N 18°36' W 156°51'1 0.5
2016-May-21 16:00N 18°36' W 156°50'7 0.9
2016-May-21 08:00N 18°31' W 156°44'0 0.1
2016-May-21 07:00N 18°31' W 156°44'3 1.2
2016-May-21 04:00N 18°30' W 156°41'0 0.0
2016-May-21 03:00N 18°30' W 156°41'3 1.7
2016-May-21 01:00N 18°28' W 156°37'0 0.0
2016-May-20 23:00N 18°28' W 156°37'6 2.0
2016-May-20 20:00N 18°28' W 156°31'2 0.4
2016-May-20 16:00N 18°28' W 156°29'2 1.2
2016-May-20 14:00N 18°28' W 156°27'4 0.5
2016-May-20 07:00N 18°29' W 156°23'2 0.8
2016-May-20 05:00N 18°29' W 156°21'1 1.1
2016-May-20 04:00N 18°29' W 156°20'2 1.9
2016-May-20 03:00N 18°29' W 156°18'3 1.3
2016-May-20 01:00N 18°29' W 156°16'0 0.0
2016-May-20 00:00N 18°29' W 156°16'3 1.7
2016-May-19 22:00N 18°30' W 156°12'3 0.9
2016-May-19 19:00N 18°31' W 156°09'0 0.0
2016-May-19 18:00N 18°31' W 156°09'1 1.3
2016-May-19 17:00N 18°32' W 156°09'1 0.9
2016-May-19 16:00N 18°32' W 156°08'10 1.2
2016-May-19 08:00N 18°37' W 155°59'1 0.8
2016-May-19 07:00N 18°38' W 155°59'0 0.3
2016-May-19 06:00N 18°38' W 155°58'1 1.4
2016-May-19 05:00N 18°39' W 155°57'0 0.3
2016-May-19 04:00N 18°39' W 155°57'1 1.4
2016-May-19 03:00N 18°39' W 155°56'0 0.0
2016-May-19 02:00N 18°39' W 155°56'5 1.1
2016-May-18 22:00N 18°43' W 155°52'4 0.8
2016-May-18 17:00N 18°46' W 155°51'0 0.1
2016-May-18 16:00N 18°46' W 155°51'1 1.2
2016-May-18 15:00N 18°47' W 155°50'4 0.5
2016-May-18 06:00N 18°49' W 155°46'1 0.8
2016-May-18 05:00N 18°49' W 155°45'2 1.6
2016-May-18 04:00N 18°50' W 155°44'2 1.7
2016-May-18 03:00N 18°50' W 155°42'4 1.0
2016-May-17 23:00N 18°51' W 155°38'3 2.8
2016-May-17 22:00N 18°52' W 155°35'3 0.6
2016-May-17 17:00N 18°54' W 155°32'1 1.0
2016-May-17 16:00N 18°54' W 155°32'2 0.8
2016-May-17 14:00N 18°55' W 155°30'5 0.8
2016-May-17 08:00N 18°58' W 155°26'2 1.1
2016-May-17 06:00N 18°59' W 155°24'1 0.7
2016-May-17 05:00N 18°58' W 155°23'1 0.7
2016-May-17 04:00N 18°58' W 155°22'2 0.8
2016-May-17 02:00N 18°58' W 155°21'6 1.0
2016-May-16 20:00N 18°60' W 155°15'2 1.0
2016-May-16 18:00N 18°60' W 155°12'0 0.1
2016-May-16 17:00N 18°60' W 155°12'1 0.7
2016-May-16 16:00N 18°60' W 155°12'1 0.6
2016-May-16 15:00N 19°00' W 155°11'1 0.8
2016-May-16 14:00N 19°00' W 155°10'5 0.8
2016-May-16 08:00N 19°00' W 155°05'0 0.2
2016-May-16 07:00N 19°00' W 155°05'2 1.1
2016-May-16 05:00N 18°60' W 155°02'1 0.5
2016-May-16 03:00N 18°60' W 155°01'1 1.4
2016-May-16 02:00N 18°60' W 154°60'0 0.0
2016-May-16 01:00N 18°60' W 154°60'2 0.8
2016-May-15 23:00N 18°60' W 154°58'4 0.7
2016-May-15 17:00N 18°59' W 154°54'6 0.6
2016-May-15 07:00N 18°58' W 154°48'1 0.8
2016-May-15 06:00N 18°57' W 154°47'1 1.0
2016-May-15 05:00N 18°57' W 154°46'1 0.9
2016-May-15 04:00N 18°56' W 154°46'1 0.7
2016-May-15 03:00N 18°56' W 154°45'1 1.2
2016-May-15 02:00N 18°55' W 154°44'6 0.8
2016-May-14 19:00N 18°54' W 154°38'1 1.0
2016-May-14 18:00N 18°53' W 154°38'0 0.3
2016-May-14 17:00N 18°52' W 154°38'  
Track history (hours):
 
Tides and Currents Weather Stations Pressure Air Temp Water Temp Dewpoint Dewpoint Depression Visibility Wind Speed Wind Dir Waves Ship Positions

Drifting buoy 46930

Last reported at 2016-May-24 17:00 UTC. Time now 2016-May-24 21:31 UTC.
Position N 19°13' W 157°02'.

Date/timePositionNaut miles runAvg speedWind from/ knotsBaromVisibWave heightAir tempDewpointWater temp
2016-May-24 17:00N 19°13' W 157°02'1 0.7
2016-May-24 16:00N 19°13' W 157°03'0 0.3
2016-May-24 15:00N 19°13' W 157°03'4 0.6
2016-May-24 08:00N 19°10' W 157°06'0 0.5
2016-May-24 07:00N 19°09' W 157°07'1 1.1
2016-May-24 06:00N 19°09' W 157°06'0 0.2
2016-May-24 05:00N 19°08' W 157°06'1 1.2
2016-May-24 04:00N 19°07' W 157°06'1 0.7
2016-May-24 03:00N 19°07' W 157°06'2 0.4
2016-May-23 23:00N 19°05' W 157°05'2 0.4
2016-May-23 19:00N 19°05' W 157°07'5 0.4
2016-May-23 07:00N 19°01' W 157°10'2 0.8
2016-May-23 05:00N 18°59' W 157°09'1 0.5
2016-May-23 04:00N 18°58' W 157°09'1 0.8
2016-May-23 03:00N 18°58' W 157°09'1 0.8
2016-May-23 02:00N 18°57' W 157°09'1 0.4
2016-May-22 23:00N 18°56' W 157°09'5 0.9
2016-May-22 17:00N 18°50' W 157°07'1 0.7
2016-May-22 15:00N 18°50' W 157°06'8 1.0
2016-May-22 07:00N 18°43' W 157°02'2 0.9
2016-May-22 05:00N 18°42' W 156°60'3 0.8
2016-May-22 02:00N 18°41' W 156°58'8 1.3
2016-May-21 20:00N 18°36' W 156°52'0 0.2
2016-May-21 19:00N 18°36' W 156°51'1 0.5
2016-May-21 16:00N 18°36' W 156°50'7 0.9
2016-May-21 08:00N 18°31' W 156°44'0 0.1
2016-May-21 07:00N 18°31' W 156°44'3 1.2
2016-May-21 04:00N 18°30' W 156°41'0 0.0
2016-May-21 03:00N 18°30' W 156°41'3 1.7
2016-May-21 01:00N 18°28' W 156°37'0 0.0
2016-May-20 23:00N 18°28' W 156°37'6 2.0
2016-May-20 20:00N 18°28' W 156°31'2 0.4
2016-May-20 16:00N 18°28' W 156°29'2 1.2
2016-May-20 14:00N 18°28' W 156°27'4 0.5
2016-May-20 07:00N 18°29' W 156°23'2 0.8
2016-May-20 05:00N 18°29' W 156°21'1 1.1
2016-May-20 04:00N 18°29' W 156°20'2 1.9
2016-May-20 03:00N 18°29' W 156°18'3 1.3
2016-May-20 01:00N 18°29' W 156°16'0 0.0
2016-May-20 00:00N 18°29' W 156°16'3 1.7
2016-May-19 22:00N 18°30' W 156°12'3 0.9
2016-May-19 19:00N 18°31' W 156°09'0 0.0
2016-May-19 18:00N 18°31' W 156°09'1 1.3
2016-May-19 17:00N 18°32' W 156°09'1 0.9
2016-May-19 16:00N 18°32' W 156°08'10 1.2
2016-May-19 08:00N 18°37' W 155°59'1 0.8
2016-May-19 07:00N 18°38' W 155°59'0 0.3
2016-May-19 06:00N 18°38' W 155°58'1 1.4
2016-May-19 05:00N 18°39' W 155°57'0 0.3
2016-May-19 04:00N 18°39' W 155°57'1 1.4
2016-May-19 03:00N 18°39' W 155°56'0 0.0
2016-May-19 02:00N 18°39' W 155°56'5 1.1
2016-May-18 22:00N 18°43' W 155°52'4 0.8
2016-May-18 17:00N 18°46' W 155°51'0 0.1
2016-May-18 16:00N 18°46' W 155°51'1 1.2
2016-May-18 15:00N 18°47' W 155°50'4 0.5
2016-May-18 06:00N 18°49' W 155°46'1 0.8
2016-May-18 05:00N 18°49' W 155°45'2 1.6
2016-May-18 04:00N 18°50' W 155°44'2 1.7
2016-May-18 03:00N 18°50' W 155°42'4 1.0
2016-May-17 23:00N 18°51' W 155°38'3 2.8
2016-May-17 22:00N 18°52' W 155°35'3 0.6
2016-May-17 17:00N 18°54' W 155°32'1 1.0
2016-May-17 16:00N 18°54' W 155°32'2 0.8
2016-May-17 14:00N 18°55' W 155°30'5 0.8
2016-May-17 08:00N 18°58' W 155°26'2 1.1
2016-May-17 06:00N 18°59' W 155°24'1 0.7
2016-May-17 05:00N 18°58' W 155°23'1 0.7
2016-May-17 04:00N 18°58' W 155°22'2 0.8
2016-May-17 02:00N 18°58' W 155°21'6 1.0
2016-May-16 20:00N 18°60' W 155°15'2 1.0
2016-May-16 18:00N 18°60' W 155°12'0 0.1
2016-May-16 17:00N 18°60' W 155°12'1 0.7
2016-May-16 16:00N 18°60' W 155°12'1 0.6
2016-May-16 15:00N 19°00' W 155°11'1 0.8
2016-May-16 14:00N 19°00' W 155°10'5 0.8
2016-May-16 08:00N 19°00' W 155°05'0 0.2
2016-May-16 07:00N 19°00' W 155°05'2 1.1
2016-May-16 05:00N 18°60' W 155°02'1 0.5
2016-May-16 03:00N 18°60' W 155°01'1 1.4
2016-May-16 02:00N 18°60' W 154°60'0 0.0
2016-May-16 01:00N 18°60' W 154°60'2 0.8
2016-May-15 23:00N 18°60' W 154°58'4 0.7
2016-May-15 17:00N 18°59' W 154°54'6 0.6
2016-May-15 07:00N 18°58' W 154°48'1 0.8
2016-May-15 06:00N 18°57' W 154°47'1 1.0
2016-May-15 05:00N 18°57' W 154°46'1 0.9
2016-May-15 04:00N 18°56' W 154°46'1 0.7
2016-May-15 03:00N 18°56' W 154°45'1 1.2
2016-May-15 02:00N 18°55' W 154°44'6 0.8
2016-May-14 19:00N 18°54' W 154°38'1 1.0
2016-May-14 18:00N 18°53' W 154°38'0 0.3
2016-May-14 17:00N 18°52' W 154°38'  

Dump ship's entire track history